Time;durP1;ratioP1;P1;durP2;ratioP2;P2;SDS_P1;SDS_P2;PMS_P1;PMS_P2;Temp;Humidity;BMP_temperature;BMP_pressure;BME280_temperature;BME280_humidity;BME280_pressure;Samples;Min_cycle;Max_cycle;Signal;HPM_P1;HPM_P2
2022/01/03 00:01:46;;;;;;;;;7.00;4.00;;;;;13.42;65.28;101473.44;5100365;27;45420;-67
2022/01/03 00:04:14;;;;;;;;;6.00;4.33;;;;;13.44;65.58;101479.47;5081259;27;47157;-68
2022/01/03 00:06:40;;;;;;;;;7.00;5.00;;;;;13.33;65.03;101460.94;5100093;27;45381;-68
2022/01/03 00:09:09;;;;;;;;;5.00;4.00;;;;;13.00;65.15;101409.69;5100202;27;45208;-68
2022/01/03 00:11:35;;;;;;;;;7.67;3.00;;;;;13.37;65.38;101489.03;5091883;27;45557;-68
2022/01/03 00:14:01;;;;;;;;;4.00;4.00;;;;;13.26;64.97;101468.69;5101994;27;46491;-68
2022/01/03 00:16:29;;;;;;;;;7.00;5.33;;;;;13.38;65.15;101496.91;5101594;27;45582;-69
2022/01/03 00:18:55;;;;;;;;;8.33;5.33;;;;;13.15;65.07;101443.94;5099972;27;45324;-66
2022/01/03 00:21:26;;;;;;;;;4.00;2.00;;;;;13.39;65.29;101503.09;5102119;27;45200;-67
2022/01/03 00:23:56;;;;;;;;;6.00;5.00;;;;;13.04;65.22;101439.63;5120494;27;45426;-67
2022/01/03 00:29:25;;;;;;;;;3.33;2.33;;;;;13.31;65.39;101508.31;5119546;27;45453;-67
2022/01/03 00:31:53;;;;;;;;;6.67;4.00;;;;;13.33;65.36;101514.34;5100003;27;45323;-68
2022/01/03 00:34:19;;;;;;;;;4.00;2.33;;;;;13.35;65.24;101512.38;5098247;27;48879;-67
2022/01/03 00:36:46;;;;;;;;;2.33;1.33;;;;;13.36;65.60;101514.06;5081303;27;45646;-68
2022/01/03 00:39:12;;;;;;;;;9.33;3.00;;;;;13.27;65.04;101504.25;5114957;27;45318;-68
2022/01/03 00:41:41;;;;;;;;;6.00;6.00;;;;;13.31;65.40;101519.00;5120440;27;45339;-67
2022/01/03 00:44:07;;;;;;;;;6.33;3.67;;;;;13.13;65.37;101492.13;5119736;27;45723;-67
2022/01/03 00:46:33;;;;;;;;;3.00;3.00;;;;;13.24;65.39;101515.22;5118876;27;45693;-67
2022/01/03 00:49:03;;;;;;;;;5.00;3.33;;;;;13.06;65.55;101489.22;5099577;27;45477;-67
2022/01/03 00:51:29;;;;;;;;;4.00;2.67;;;;;13.23;65.70;101516.22;5081308;27;45544;-67
2022/01/03 00:53:54;;;;;;;;;1.00;1.00;;;;;13.17;65.54;101504.22;5111648;27;45470;-68
2022/01/03 00:56:35;;;;;;;;;3.00;2.67;;;;;13.21;65.91;101510.97;5118892;27;45519;-67
2022/01/03 00:59:10;;;;;;;;;8.00;3.33;;;;;13.28;65.60;101511.28;5120145;27;45177;-67
2022/01/03 01:01:38;;;;;;;;;5.33;3.00;;;;;13.26;65.76;101510.59;5100825;27;45419;-67
2022/01/03 01:04:08;;;;;;;;;8.67;3.67;;;;;13.20;65.78;101514.63;5099071;27;46183;-68
2022/01/03 01:06:35;;;;;;;;;3.33;2.67;;;;;13.19;65.65;101506.78;5116815;27;45351;-67
2022/01/03 01:09:07;;;;;;;;;4.33;3.00;;;;;13.24;65.56;101507.22;5120015;27;45337;-67
2022/01/03 01:11:33;;;;;;;;;7.33;3.33;;;;;13.26;65.80;101519.44;5119838;27;45239;-68
2022/01/03 01:14:00;;;;;;;;;10.00;3.67;;;;;13.21;65.81;101516.31;5099900;27;46670;-73
2022/01/03 01:16:26;;;;;;;;;5.00;3.00;;;;;12.91;66.10;101461.25;5117082;27;45501;-67
2022/01/03 01:18:52;;;;;;;;;2.00;2.00;;;;;13.32;65.53;101521.53;5101138;27;45507;-68
2022/01/03 01:21:18;;;;;;;;;4.00;4.00;;;;;13.29;65.62;101521.81;5119979;27;45359;-68
2022/01/03 01:23:44;;;;;;;;;3.00;3.00;;;;;13.24;65.90;101513.41;5108045;27;45958;-69
2022/01/03 01:28:54;;;;;;;;;2.00;1.33;;;;;13.19;65.56;101501.44;5098895;27;45486;-67
2022/01/03 01:31:21;;;;;;;;;3.33;3.00;;;;;13.37;65.71;101511.25;5099278;27;45468;-67
2022/01/03 01:33:52;;;;;;;;;4.00;2.33;;;;;13.37;65.50;101515.75;5098196;27;46750;-68
2022/01/03 01:36:21;;;;;;;;;7.67;3.00;;;;;12.97;65.67;101439.31;5098416;27;45397;-68
2022/01/03 01:38:50;;;;;;;;;7.67;5.00;;;;;13.35;65.70;101507.88;5098753;27;45376;-67
2022/01/03 01:41:18;;;;;;;;;2.00;2.00;;;;;13.35;65.76;101504.38;5105495;27;45330;-67
2022/01/03 01:43:48;;;;;;;;;4.33;3.33;;;;;13.24;65.64;101483.19;5099640;27;47012;-67
2022/01/03 01:46:17;;;;;;;;;7.67;3.00;;;;;13.32;65.55;101501.97;5080240;27;46304;-67
2022/01/03 01:48:45;;;;;;;;;5.00;2.33;;;;;13.32;65.94;101518.00;5080072;27;45491;-67
2022/01/03 01:51:13;;;;;;;;;3.67;3.00;;;;;13.33;65.98;101509.00;5112963;27;45205;-68
2022/01/03 01:53:48;;;;;;;;;4.67;2.67;;;;;13.24;65.92;101496.53;5118840;27;46923;-67
2022/01/03 01:56:25;;;;;;;;;4.00;2.67;;;;;13.26;66.02;101506.09;5119045;27;45260;-68
2022/01/03 01:59:02;;;;;;;;;2.67;2.00;;;;;13.24;65.99;101499.19;5118735;27;45345;-67
2022/01/03 02:02:07;;;;;;;;;5.33;3.67;;;;;13.12;66.16;101473.59;5098363;27;45500;-68
2022/01/03 02:04:40;;;;;;;;;4.00;3.00;;;;;13.16;66.38;101483.00;5098592;27;46662;-68
2022/01/03 02:07:29;;;;;;;;;6.00;3.33;;;;;13.12;65.87;101489.63;5118887;27;45296;-68
2022/01/03 02:10:06;;;;;;;;;2.33;2.33;;;;;13.10;66.50;101489.75;5118711;27;45551;-67
2022/01/03 02:12:38;;;;;;;;;8.33;5.00;;;;;13.07;67.02;101500.72;5118931;27;45395;-67
2022/01/03 02:15:09;;;;;;;;;9.33;6.33;;;;;12.99;67.03;101493.41;5085908;27;48117;-68
2022/01/03 02:17:35;;;;;;;;;2.33;2.33;;;;;13.04;66.89;101509.03;5098130;27;45595;-67
2022/01/03 02:20:08;;;;;;;;;5.33;3.00;;;;;13.03;66.88;101508.19;5098121;27;45348;-67
2022/01/03 02:22:35;;;;;;;;;5.00;3.33;;;;;12.89;67.05;101492.59;5098195;27;45217;-68
2022/01/03 02:25:01;;;;;;;;;5.67;4.67;;;;;12.90;66.81;101486.25;5098153;27;46028;-66
2022/01/03 02:27:26;;;;;;;;;3.00;2.00;;;;;12.95;67.19;101492.00;5098132;27;45288;-67
2022/01/03 02:29:51;;;;;;;;;6.67;4.67;;;;;12.97;67.04;101489.19;5100318;27;45402;-67
2022/01/03 02:32:17;;;;;;;;;13.00;5.00;;;;;12.83;67.33;101487.81;5100061;27;46327;-68
2022/01/03 02:34:42;;;;;;;;;6.00;4.00;;;;;12.88;67.06;101500.72;5115709;27;45570;-67
2022/01/03 02:37:08;;;;;;;;;8.33;4.00;;;;;12.89;67.95;101511.25;5097660;27;45343;-68
2022/01/03 02:39:34;;;;;;;;;5.67;3.33;;;;;12.80;67.98;101507.59;5099022;27;45484;-68
2022/01/03 02:41:59;;;;;;;;;4.33;3.67;;;;;12.77;67.63;101499.88;5097856;27;45343;-68
2022/01/03 02:44:25;;;;;;;;;5.00;5.00;;;;;12.76;67.46;101510.69;5097495;27;46529;-67
2022/01/03 02:46:51;;;;;;;;;6.67;4.00;;;;;12.58;67.77;101475.84;5097777;27;45557;-68
2022/01/03 02:49:16;;;;;;;;;5.00;2.67;;;;;12.80;67.92;101499.59;5097547;27;45154;-68
2022/01/03 02:51:45;;;;;;;;;8.00;5.00;;;;;12.80;67.93;101501.41;5116254;27;45287;-68
2022/01/03 02:54:13;;;;;;;;;10.00;6.33;;;;;12.78;68.19;101503.38;5117992;27;46158;-67
2022/01/03 02:56:41;;;;;;;;;5.00;4.00;;;;;12.69;68.17;101499.75;5117813;27;45413;-68
2022/01/03 02:59:14;;;;;;;;;5.33;3.00;;;;;12.60;68.65;101491.72;5118171;27;45527;-67
2022/01/03 03:01:47;;;;;;;;;3.67;3.33;;;;;12.68;68.57;101491.88;5097697;27;45528;-68
2022/01/03 03:04:13;;;;;;;;;6.00;4.00;;;;;12.45;68.57;101456.63;5097342;27;46541;-70
2022/01/03 03:06:39;;;;;;;;;8.33;3.00;;;;;12.63;68.67;101478.13;5098410;27;45507;-68
2022/01/03 03:09:07;;;;;;;;;4.33;3.00;;;;;12.57;68.56;101462.66;5097373;27;45269;-67
2022/01/03 03:11:37;;;;;;;;;5.67;3.00;;;;;12.75;68.84;101487.66;5097303;27;45399;-67
2022/01/03 03:14:02;;;;;;;;;6.00;4.00;;;;;12.44;68.35;101426.44;5097056;27;47535;-67
2022/01/03 03:16:28;;;;;;;;;10.00;5.00;;;;;12.39;69.00;101412.66;5078810;27;45916;-66
2022/01/03 03:18:54;;;;;;;;;5.33;3.33;;;;;12.67;68.43;101461.69;5098082;27;45546;-66
2022/01/03 03:21:20;;;;;;;;;3.00;3.00;;;;;12.71;68.61;101472.91;5101535;27;45410;-68
2022/01/03 03:23:45;;;;;;;;;3.67;3.33;;;;;12.71;68.70;101465.75;5082266;27;47917;-68
2022/01/03 03:26:11;;;;;;;;;3.00;2.00;;;;;12.69;68.67;101461.53;5100747;27;45244;-67
2022/01/03 03:28:37;;;;;;;;;6.00;3.33;;;;;12.78;68.54;101482.88;5100828;27;45507;-68
2022/01/03 03:31:02;;;;;;;;;7.33;5.67;;;;;12.77;68.41;101475.84;5100920;27;45441;-67
2022/01/03 03:33:32;;;;;;;;;3.33;2.00;;;;;12.77;68.24;101475.00;5100575;27;47458;-67
2022/01/03 03:35:59;;;;;;;;;7.67;4.00;;;;;12.70;68.69;101457.91;5082911;27;45434;-68
2022/01/03 03:38:26;;;;;;;;;8.33;4.00;;;;;12.62;68.53;101449.75;5093804;27;45514;-68
2022/01/03 03:40:57;;;;;;;;;5.67;3.00;;;;;12.67;68.82;101455.50;5121341;27;45283;-68
2022/01/03 03:43:22;;;;;;;;;10.33;3.00;;;;;12.71;68.45;101462.25;5120907;27;46458;-68
2022/01/03 03:45:51;;;;;;;;;7.00;4.00;;;;;12.22;68.62;101386.72;5121026;27;45545;-67
2022/01/03 03:48:18;;;;;;;;;3.33;3.00;;;;;12.66;68.62;101457.34;5121062;27;45464;-67
2022/01/03 03:50:44;;;;;;;;;8.00;5.67;;;;;12.61;68.75;101442.72;5121279;27;45314;-67
2022/01/03 03:53:10;;;;;;;;;8.33;5.33;;;;;12.64;69.03;101456.63;5117215;27;46719;-67
2022/01/03 03:55:35;;;;;;;;;7.00;5.33;;;;;12.63;69.57;101457.63;5100397;27;45405;-67
2022/01/03 03:58:02;;;;;;;;;3.00;3.00;;;;;12.66;69.36;101453.81;5100037;27;45453;-67
2022/01/03 04:00:28;;;;;;;;;6.67;3.00;;;;;12.59;69.04;101450.00;5082246;27;45552;-67
2022/01/03 04:02:53;;;;;;;;;7.67;5.33;;;;;12.41;69.35;101409.84;5100035;27;47444;-67
2022/01/03 04:05:19;;;;;;;;;5.00;3.67;;;;;12.71;69.12;101452.41;5100224;27;45564;-68
2022/01/03 04:07:45;;;;;;;;;6.00;4.00;;;;;12.71;69.04;101452.41;5102361;27;45537;-67
2022/01/03 04:10:15;;;;;;;;;8.00;4.00;;;;;12.70;69.64;101448.06;5101344;27;45351;-68
2022/01/03 04:12:41;;;;;;;;;4.67;4.33;;;;;12.70;69.15;101433.88;5081470;27;46899;-68
2022/01/03 04:15:08;;;;;;;;;5.67;2.67;;;;;12.71;68.94;101427.56;5099803;27;45445;-67
2022/01/03 04:17:33;;;;;;;;;5.33;5.00;;;;;12.55;69.31;101411.28;5099868;27;45299;-67
2022/01/03 04:19:59;;;;;;;;;7.33;6.00;;;;;12.69;69.61;101421.53;5100228;27;45453;-67
2022/01/03 04:22:24;;;;;;;;;3.00;3.00;;;;;12.60;69.66;101425.03;5099590;27;45995;-67
2022/01/03 04:24:50;;;;;;;;;2.33;2.00;;;;;12.24;69.39;101351.91;5099805;27;45252;-67
2022/01/03 04:27:15;;;;;;;;;7.33;3.00;;;;;12.62;69.35;101418.59;5099848;27;45666;-67
2022/01/03 04:29:40;;;;;;;;;4.33;3.00;;;;;12.66;69.35;101421.81;5105437;27;45477;-67
2022/01/03 04:32:06;;;;;;;;;7.67;2.67;;;;;12.26;68.79;101353.47;5098808;27;48484;-66
2022/01/03 04:34:31;;;;;;;;;6.67;2.67;;;;;12.56;69.26;101399.63;5120479;27;45351;-68
2022/01/03 04:36:57;;;;;;;;;3.33;3.33;;;;;12.65;68.95;101420.13;5101895;27;45317;-68
2022/01/03 04:39:23;;;;;;;;;7.00;6.00;;;;;12.67;69.06;101407.50;5120488;27;45615;-68
2022/01/03 04:41:49;;;;;;;;;4.00;1.00;;;;;12.39;69.13;101366.50;5101332;27;48327;-67
2022/01/03 04:44:14;;;;;;;;;4.00;3.00;;;;;12.63;69.09;101403.44;5120241;27;45552;-68
2022/01/03 04:46:40;;;;;;;;;3.67;2.00;;;;;12.56;69.23;101391.63;5119956;27;45220;-68
2022/01/03 04:49:07;;;;;;;;;3.00;3.00;;;;;12.61;68.78;101405.38;5118517;27;45389;-67
2022/01/03 04:51:33;;;;;;;;;9.33;5.67;;;;;12.62;68.61;101399.06;5118079;27;46263;-67
2022/01/03 04:53:59;;;;;;;;;4.67;3.33;;;;;12.62;69.02;101396.41;5119953;27;45471;-67
2022/01/03 04:56:27;;;;;;;;;6.33;5.00;;;;;12.55;69.14;101395.28;5120019;27;45378;-67
2022/01/03 04:58:53;;;;;;;;;3.67;1.67;;;;;12.54;69.05;101393.59;5099940;27;45512;-67
2022/01/03 05:01:19;;;;;;;;;7.00;5.00;;;;;12.33;69.13;101359.91;5099911;27;45918;-67
2022/01/03 05:03:44;;;;;;;;;8.67;4.33;;;;;12.62;68.87;101389.25;5099141;27;45208;-69
2022/01/03 05:06:10;;;;;;;;;4.33;4.33;;;;;12.59;68.75;101389.50;5080801;27;45781;-68
2022/01/03 05:08:35;;;;;;;;;11.67;5.33;;;;;12.47;68.86;101377.31;5080841;27;45467;-68
2022/01/03 05:11:01;;;;;;;;;4.67;4.33;;;;;12.58;69.43;101400.31;5108131;27;45521;-67
2022/01/03 05:13:30;;;;;;;;;5.00;2.67;;;;;12.36;69.20;101356.94;5119635;27;45354;-67
2022/01/03 05:15:56;;;;;;;;;7.00;4.00;;;;;12.43;69.32;101355.44;5118270;27;45501;-68
2022/01/03 05:18:21;;;;;;;;;5.00;4.00;;;;;12.55;69.48;101381.94;5105553;27;45650;-67
2022/01/03 05:20:47;;;;;;;;;4.33;3.33;;;;;12.62;69.12;101380.41;5091842;27;47424;-67
2022/01/03 05:23:12;;;;;;;;;3.00;3.00;;;;;12.63;69.52;101387.41;5098788;27;45172;-68
2022/01/03 05:25:37;;;;;;;;;3.67;2.67;;;;;12.59;69.25;101370.00;5098890;27;45458;-68
2022/01/03 05:28:03;;;;;;;;;5.00;3.67;;;;;12.59;69.48;101389.50;5098754;27;45418;-67
2022/01/03 05:30:28;;;;;;;;;5.00;4.67;;;;;12.43;69.60;101366.09;5079972;27;46703;-68
2022/01/03 05:32:54;;;;;;;;;5.33;5.33;;;;;12.53;69.42;101391.91;5118140;27;45315;-67
2022/01/03 05:35:19;;;;;;;;;6.33;4.00;;;;;12.58;69.51;101387.81;5119353;27;45232;-68
2022/01/03 05:37:44;;;;;;;;;7.00;4.00;;;;;12.49;69.59;101386.00;5119169;27;45217;-67
2022/01/03 05:40:10;;;;;;;;;4.00;2.00;;;;;12.45;69.64;101369.47;5118020;27;45447;-67
2022/01/03 05:42:36;;;;;;;;;6.33;1.67;;;;;12.52;69.66;101388.41;5079587;27;45853;-66
2022/01/03 05:45:04;;;;;;;;;7.33;3.00;;;;;12.51;69.64;101389.38;5098780;27;45618;-66
2022/01/03 05:47:30;;;;;;;;;4.00;3.00;;;;;12.56;69.45;101394.28;5098467;27;45674;-68
2022/01/03 05:49:56;;;;;;;;;8.67;5.00;;;;;12.51;69.15;101381.38;5098565;27;46059;-68
2022/01/03 05:52:22;;;;;;;;;4.00;3.00;;;;;12.54;69.60;101381.09;5079665;27;45399;-67
2022/01/03 05:54:47;;;;;;;;;6.67;3.33;;;;;12.58;69.60;101386.97;5098250;27;45263;-68
2022/01/03 05:57:13;;;;;;;;;6.00;4.33;;;;;12.33;69.52;101348.41;5098329;27;45431;-68
2022/01/03 05:59:38;;;;;;;;;6.67;5.33;;;;;12.56;69.51;101399.63;5098167;27;45481;-66
2022/01/03 06:02:04;;;;;;;;;8.00;4.00;;;;;12.58;69.72;101394.97;5103796;27;45469;-68
2022/01/03 06:05:05;;;;;;;;;8.33;3.67;;;;;12.62;69.28;101396.41;5118985;27;45202;-66
2022/01/03 06:07:22;;;;;;;;;8.00;5.33;;;;;12.64;69.69;101394.44;5115351;27;45228;-68
2022/01/03 06:09:48;;;;;;;;;8.00;4.00;;;;;12.66;69.38;101403.13;5118370;27;45905;-67
2022/01/03 06:12:14;;;;;;;;;7.00;4.33;;;;;12.57;69.48;101391.47;5100885;27;45447;-68
2022/01/03 06:14:40;;;;;;;;;6.67;5.00;;;;;12.49;69.36;101362.84;5098189;27;45236;-68
2022/01/03 06:17:06;;;;;;;;;7.67;4.33;;;;;12.52;69.13;101375.06;5092385;27;45344;-68
2022/01/03 06:19:35;;;;;;;;;7.00;6.00;;;;;12.09;69.50;101309.69;5079095;27;47524;-68
2022/01/03 06:22:04;;;;;;;;;4.33;4.33;;;;;12.56;69.30;101396.94;5106818;27;45545;-67
2022/01/03 06:24:30;;;;;;;;;8.00;6.67;;;;;12.51;69.77;101376.03;5117450;27;45267;-68
2022/01/03 06:26:55;;;;;;;;;8.00;5.00;;;;;12.58;69.49;101390.50;5118830;27;45218;-68
2022/01/03 06:29:21;;;;;;;;;5.00;3.33;;;;;12.68;69.44;101388.66;5118327;27;46491;-68
2022/01/03 06:31:48;;;;;;;;;7.00;3.00;;;;;12.59;69.15;101380.66;5118342;27;45430;-66
2022/01/03 06:34:14;;;;;;;;;11.00;4.00;;;;;12.61;69.26;101379.53;5099511;27;45519;-68
2022/01/03 06:36:40;;;;;;;;;7.33;3.33;;;;;12.21;69.70;101313.03;5118363;27;45620;-66
2022/01/03 06:39:07;;;;;;;;;6.67;4.00;;;;;12.72;69.22;101375.88;5118040;27;45361;-68
2022/01/03 06:41:33;;;;;;;;;11.67;4.00;;;;;12.67;69.55;101368.31;5117827;27;45161;-66
2022/01/03 06:43:59;;;;;;;;;5.33;3.67;;;;;12.72;69.22;101367.88;5117926;27;45194;-66
2022/01/03 06:46:24;;;;;;;;;6.67;4.00;;;;;12.41;69.28;101329.84;5118210;27;45464;-66
2022/01/03 06:48:50;;;;;;;;;6.33;5.67;;;;;12.58;69.49;101349.63;5117493;27;46314;-67
2022/01/03 06:51:16;;;;;;;;;8.00;4.33;;;;;12.63;69.33;101350.91;5102356;27;45318;-66
2022/01/03 06:53:42;;;;;;;;;9.00;2.67;;;;;12.56;69.61;101339.13;5096313;27;45435;-69
2022/01/03 06:56:08;;;;;;;;;2.00;2.00;;;;;12.68;69.43;101370.00;5098782;27;45445;-67
2022/01/03 06:58:34;;;;;;;;;8.33;7.33;;;;;12.48;68.97;101328.31;5097354;27;46072;-67
2022/01/03 07:01:00;;;;;;;;;9.67;5.00;;;;;12.39;69.32;101310.50;5096669;27;45500;-70
2022/01/03 07:03:26;;;;;;;;;7.00;5.67;;;;;12.69;69.68;101370.84;5097059;27;45497;-67
2022/01/03 07:05:52;;;;;;;;;6.67;4.67;;;;;12.60;69.06;101347.66;5097123;27;45648;-66
2022/01/03 07:08:20;;;;;;;;;7.67;3.33;;;;;12.63;69.59;101360.75;5097095;27;47421;-67
2022/01/03 07:10:45;;;;;;;;;5.00;4.00;;;;;12.32;69.73;101288.91;5097075;27;45373;-67
2022/01/03 07:13:11;;;;;;;;;6.33;5.33;;;;;12.64;69.62;101351.75;5096952;27;45322;-66
2022/01/03 07:21:05;;;;;;;;;5.00;3.33;;;;;12.72;69.41;101338.53;5109629;27;45459;-74
2022/01/03 07:23:30;;;;;;;;;5.00;3.00;;;;;12.58;69.17;101320.28;5117071;27;45462;-72
2022/01/03 07:25:56;;;;;;;;;6.33;3.00;;;;;12.70;69.36;101340.50;5084862;27;45447;-68
2022/01/03 07:28:21;;;;;;;;;6.33;3.00;;;;;12.72;69.59;101354.53;5117265;27;45403;-67
2022/01/03 07:30:46;;;;;;;;;10.00;5.00;;;;;12.60;70.04;101334.31;5106377;27;45335;-68
2022/01/03 07:33:12;;;;;;;;;6.33;4.33;;;;;12.29;69.56;101286.53;5096976;27;45280;-67
2022/01/03 07:35:37;;;;;;;;;3.67;3.33;;;;;12.58;70.00;101336.31;5078450;27;45601;-67
2022/01/03 07:38:04;;;;;;;;;7.67;5.00;;;;;12.63;69.68;101339.41;5078236;27;48525;-67
2022/01/03 07:40:31;;;;;;;;;11.67;5.00;;;;;12.41;69.79;101297.84;5096747;27;45318;-66
2022/01/03 07:43:01;;;;;;;;;6.33;6.33;;;;;12.19;69.69;101256.34;5096755;27;45261;-67
2022/01/03 07:45:27;;;;;;;;;5.67;3.33;;;;;12.48;69.88;101313.16;5095398;27;45422;-68
2022/01/03 07:47:52;;;;;;;;;5.67;5.00;;;;;12.58;70.06;101333.63;5096622;27;45637;-67
2022/01/03 07:50:18;;;;;;;;;8.67;5.00;;;;;12.49;70.34;101314.84;5101611;27;45344;-67
2022/01/03 07:52:43;;;;;;;;;5.33;4.00;;;;;12.48;70.54;101315.84;5117000;27;45399;-67
2022/01/03 07:55:12;;;;;;;;;10.00;5.33;;;;;12.55;70.70;101320.59;5117270;27;45390;-67
2022/01/03 07:57:38;;;;;;;;;10.67;5.00;;;;;12.58;70.50;101321.13;5116861;27;47512;-67
2022/01/03 08:00:11;;;;;;;;;9.00;6.67;;;;;12.52;70.56;101327.06;5096215;27;45319;-69
2022/01/03 08:02:38;;;;;;;;;7.67;4.00;;;;;12.55;70.63;101316.09;5096278;27;45267;-68
2022/01/03 08:05:05;;;;;;;;;10.00;5.00;;;;;12.10;70.65;101241.22;5097553;27;45232;-68
2022/01/03 08:07:31;;;;;;;;;5.33;5.33;;;;;12.39;70.78;101291.81;5081673;27;45692;-67
2022/01/03 08:09:56;;;;;;;;;12.33;5.00;;;;;12.57;71.13;101313.28;5099734;27;45459;-66
2022/01/03 08:12:22;;;;;;;;;11.00;5.00;;;;;12.51;70.58;101296.03;5099852;27;45344;-66
2022/01/03 08:14:47;;;;;;;;;9.33;5.67;;;;;12.56;71.34;101311.59;5101353;27;45410;-68
2022/01/03 08:17:13;;;;;;;;;6.00;4.33;;;;;12.53;71.06;101312.72;5120060;27;45568;-67
2022/01/03 08:19:38;;;;;;;;;5.00;4.33;;;;;12.49;71.61;101303.34;5117133;27;45419;-66
2022/01/03 08:22:04;;;;;;;;;10.67;6.33;;;;;12.40;71.26;101291.69;5099649;27;46088;-68
2022/01/03 08:24:32;;;;;;;;;4.67;3.67;;;;;12.13;71.39;101248.94;5099814;27;45430;-69
2022/01/03 08:26:58;;;;;;;;;9.67;4.33;;;;;12.47;71.40;101297.31;5081126;27;46907;-67
2022/01/03 08:29:24;;;;;;;;;12.33;9.67;;;;;12.33;72.29;101279.91;5080603;27;45596;-66
2022/01/03 08:31:50;;;;;;;;;4.67;3.00;;;;;12.41;71.74;101295.19;5099422;27;45451;-67
2022/01/03 08:34:16;;;;;;;;;4.67;3.67;;;;;12.14;71.85;101245.28;5099767;27;45183;-67
2022/01/03 08:36:41;;;;;;;;;7.00;5.00;;;;;12.45;71.80;101305.44;5080514;27;48730;-67
2022/01/03 08:39:07;;;;;;;;;9.00;4.00;;;;;12.31;71.88;101268.56;5099294;27;45396;-66
2022/01/03 08:41:32;;;;;;;;;6.33;6.33;;;;;12.50;71.90;101297.00;5099512;27;45500;-66
2022/01/03 08:43:58;;;;;;;;;8.67;4.67;;;;;12.51;72.00;101303.19;5099678;27;45398;-67
2022/01/03 08:46:24;;;;;;;;;4.67;3.67;;;;;12.55;71.74;101304.59;5098986;27;45528;-68
2022/01/03 08:48:51;;;;;;;;;7.33;6.33;;;;;12.58;71.66;101304.28;5099096;27;45359;-72
2022/01/03 08:51:16;;;;;;;;;5.67;4.33;;;;;12.32;71.95;101259.56;5099544;27;45296;-68
2022/01/03 08:53:45;;;;;;;;;7.67;4.00;;;;;12.37;72.07;101265.31;5081729;27;45536;-68
2022/01/03 08:56:10;;;;;;;;;6.67;2.67;;;;;12.54;72.27;101281.56;5080411;27;48582;-65
2022/01/03 08:58:36;;;;;;;;;8.67;6.00;;;;;12.57;71.73;101270.59;5099970;27;45254;-68
2022/01/03 09:01:02;;;;;;;;;8.67;4.67;;;;;12.52;72.05;101278.19;5099242;27;45442;-66
2022/01/03 09:03:30;;;;;;;;;5.00;4.67;;;;;12.52;72.18;101278.19;5086737;27;45267;-68
2022/01/03 09:05:56;;;;;;;;;15.00;9.00;;;;;12.55;72.01;101291.25;5119501;27;45401;-66
2022/01/03 09:08:25;;;;;;;;;4.00;3.33;;;;;12.26;71.90;101244.16;5119893;27;45259;-66
2022/01/03 09:10:51;;;;;;;;;9.33;4.33;;;;;12.55;72.48;101278.75;5119957;27;45414;-68
2022/01/03 09:13:17;;;;;;;;;4.67;4.00;;;;;12.63;72.10;101281.56;5101280;27;45538;-67
2022/01/03 09:15:46;;;;;;;;;11.67;5.67;;;;;12.55;71.85;101278.75;5098753;27;46552;-69
2022/01/03 09:18:12;;;;;;;;;7.67;5.00;;;;;12.65;72.10;101278.75;5081705;27;45250;-68
2022/01/03 09:20:38;;;;;;;;;7.33;5.00;;;;;12.61;71.83;101280.84;5080103;27;45259;-71
2022/01/03 09:23:14;;;;;;;;;7.67;5.00;;;;;12.48;71.51;101250.97;5075118;27;45266;-67
2022/01/03 09:30:51;;;;;;;;;6.00;5.00;;;;;12.86;71.44;101298.06;5078216;28;45289;-67
2022/01/03 09:33:17;;;;;;;;;6.67;4.33;;;;;12.80;71.21;101277.28;5096873;27;45341;-68
2022/01/03 09:35:43;;;;;;;;;8.00;5.00;;;;;12.80;71.37;101264.78;5076881;27;47053;-68
2022/01/03 09:38:09;;;;;;;;;6.00;5.67;;;;;12.85;70.57;101277.69;5078328;28;45392;-68
2022/01/03 09:40:37;;;;;;;;;5.00;4.00;;;;;12.95;71.20;101285.66;5077908;28;45380;-67
2022/01/03 09:43:02;;;;;;;;;7.33;5.67;;;;;12.99;70.60;101277.22;5078244;28;45174;-68
2022/01/03 09:45:32;;;;;;;;;3.33;2.00;;;;;12.52;70.97;101198.19;5082122;27;47853;-69
2022/01/03 09:48:00;;;;;;;;;9.00;5.67;;;;;12.83;70.62;101245.00;5077926;28;45434;-67
2022/01/03 09:50:26;;;;;;;;;8.00;5.00;;;;;12.89;70.15;101265.75;5077867;28;45418;-67
2022/01/03 09:52:52;;;;;;;;;7.00;4.00;;;;;13.04;70.22;101293.66;5078170;28;45332;-68
2022/01/03 09:55:21;;;;;;;;;11.67;9.00;;;;;12.99;70.09;101271.88;5077811;27;46758;-67
2022/01/03 09:57:48;;;;;;;;;10.00;5.00;;;;;12.75;70.27;101242.19;5059819;28;45937;-67
2022/01/03 10:00:22;;;;;;;;;4.33;4.00;;;;;13.14;70.24;101295.41;5077518;28;45505;-67
2022/01/03 10:02:51;;;;;;;;;6.67;6.33;;;;;12.39;69.96;101177.16;5059327;28;45498;-66
2022/01/03 10:05:16;;;;;;;;;8.33;4.67;;;;;13.12;70.59;101286.72;5078426;27;46526;-67
2022/01/03 10:07:42;;;;;;;;;8.00;4.00;;;;;13.04;70.02;101274.13;5077607;27;45489;-67
2022/01/03 10:10:09;;;;;;;;;9.67;7.00;;;;;13.12;70.00;101282.22;5059871;27;45375;-67
2022/01/03 10:12:36;;;;;;;;;8.00;5.00;;;;;13.03;69.67;101251.94;5077427;27;45600;-66
2022/01/03 10:15:08;;;;;;;;;6.67;3.33;;;;;13.26;69.96;101280.94;5059360;28;46702;-68
2022/01/03 10:17:35;;;;;;;;;8.00;6.00;;;;;13.27;69.60;101282.63;5093855;27;45746;-67
2022/01/03 10:20:01;;;;;;;;;6.00;3.33;;;;;13.27;69.67;101290.63;5101512;27;45212;-68
2022/01/03 10:22:30;;;;;;;;;9.33;4.67;;;;;13.22;69.32;101267.03;5109632;27;45384;-68
2022/01/03 10:24:56;;;;;;;;;6.00;6.00;;;;;13.12;68.98;101260.88;5082162;27;47656;-66
2022/01/03 10:27:49;;;;;;;;;5.00;4.00;;;;;13.17;69.49;101274.59;5098629;27;46179;-67
2022/01/03 10:30:32;;;;;;;;;5.33;4.33;;;;;13.19;69.68;101266.47;5097766;27;45391;-67
2022/01/03 10:32:57;;;;;;;;;4.00;4.00;;;;;13.12;69.34;101249.34;5097801;27;45580;-67
2022/01/03 10:35:24;;;;;;;;;4.67;3.67;;;;;13.09;69.03;101246.00;5078835;27;47906;-68
2022/01/03 10:37:50;;;;;;;;;9.67;5.00;;;;;13.04;69.22;101226.06;5102858;27;45595;-67
2022/01/03 10:40:21;;;;;;;;;10.00;4.33;;;;;13.17;69.43;101244.41;5101826;27;45459;-65
2022/01/03 10:42:47;;;;;;;;;11.33;5.00;;;;;13.22;69.07;101244.84;5097410;27;45470;-65
2022/01/03 10:45:26;;;;;;;;;5.00;3.00;;;;;13.12;68.99;101215.47;5089775;27;48481;-67
2022/01/03 10:47:51;;;;;;;;;12.67;7.67;;;;;13.21;68.70;101211.09;5099437;27;45332;-67
2022/01/03 10:50:19;;;;;;;;;7.33;6.67;;;;;13.25;68.66;101217.84;5116027;27;45318;-66
2022/01/03 10:52:46;;;;;;;;;5.00;4.00;;;;;13.31;68.42;101222.56;5117936;27;45358;-67
2022/01/03 10:55:36;;;;;;;;;6.33;5.33;;;;;13.33;68.38;101210.75;5106139;27;47504;-66
2022/01/03 10:58:05;;;;;;;;;8.67;3.00;;;;;13.17;68.19;101199.00;5100766;27;45594;-66
2022/01/03 11:00:38;;;;;;;;;4.00;4.00;;;;;13.18;68.11;101200.72;5097206;27;45306;-67
2022/01/03 11:03:17;;;;;;;;;9.67;6.33;;;;;13.26;68.57;101216.84;5097425;27;45415;-67
2022/01/03 11:05:49;;;;;;;;;7.67;6.00;;;;;13.28;68.52;101202.34;5078260;27;47111;-66
2022/01/03 11:11:00;;;;;;;;;8.00;3.00;;;;;12.32;68.02;101016.94;5100312;27;45469;-66
2022/01/03 11:13:26;;;;;;;;;4.00;3.67;;;;;13.41;67.94;101183.28;5113167;27;45615;-66
2022/01/03 11:15:55;;;;;;;;;4.33;2.67;;;;;13.35;67.75;101171.38;5117351;27;46636;-66
2022/01/03 11:18:26;;;;;;;;;3.67;2.67;;;;;12.86;68.22;101099.75;5096133;27;45451;-67
2022/01/03 11:21:16;;;;;;;;;3.33;3.00;;;;;13.05;67.67;101127.16;5096779;27;45617;-67
2022/01/03 11:23:45;;;;;;;;;7.67;4.33;;;;;12.43;67.85;101014.09;5098141;27;45544;-67
2022/01/03 11:26:20;;;;;;;;;8.00;5.00;;;;;13.16;67.62;101128.75;5096877;27;46603;-67
2022/01/03 11:28:48;;;;;;;;;6.00;4.00;;;;;13.44;68.20;101156.28;5096846;27;45458;-66
2022/01/03 11:31:16;;;;;;;;;4.67;3.67;;;;;13.48;67.93;101154.97;5099702;27;45417;-66
2022/01/03 11:33:42;;;;;;;;;6.67;3.00;;;;;13.39;67.79;101129.19;5080218;27;45546;-67
2022/01/03 11:36:08;;;;;;;;;5.00;4.00;;;;;13.34;67.70;101110.94;5106750;27;46452;-67
2022/01/03 11:38:37;;;;;;;;;6.00;1.67;;;;;13.42;67.97;101110.19;5117140;27;45241;-71
2022/01/03 11:41:05;;;;;;;;;8.00;4.67;;;;;13.52;67.67;101137.66;5100210;27;45479;-69
2022/01/03 11:43:38;;;;;;;;;6.33;5.00;;;;;13.46;67.37;101124.09;5094555;27;45442;-66
2022/01/03 11:46:05;;;;;;;;;3.00;2.67;;;;;13.30;67.78;101100.72;5093127;27;47682;-67